Time;durP1;ratioP1;P1;durP2;ratioP2;P2;SDS_P1;SDS_P2;PMS_P1;PMS_P2;Temp;Humidity;BMP_temperature;BMP_pressure;BME280_temperature;BME280_humidity;BME280_pressure;Samples;Min_cycle;Max_cycle;Signal;HPM_P1;HPM_P2
2022/08/08 00:01:16;;;;;;;;;;;;;;;17.49;49.89;100572.45;1404192;93;20265;-87
2022/08/08 00:03:55;;;;;;;;;;;;;;;17.49;50.03;100576.95;1404147;92;20339;-87
2022/08/08 00:06:41;;;;;;;;;;;;;;;17.46;50.19;100575.99;1399160;93;20485;-87
2022/08/08 00:09:11;;;;;;;;;;;;;;;17.46;51.14;100582.17;1401641;93;20502;-88
2022/08/08 00:11:42;;;;;;;;;;;;;;;17.48;50.70;100582.00;1424349;92;20415;-87
2022/08/08 00:14:15;;;;;;;;;;;;;;;17.46;50.92;100582.17;1425191;92;20366;-87
2022/08/08 00:16:51;;;;;;;;;;;;;;;17.46;50.53;100580.83;1417760;90;20562;-87
2022/08/08 00:19:40;;;;;;;;;;;;;;;17.45;51.06;100575.69;1424507;92;20388;-87
2022/08/08 00:22:15;;;;;;;;;;;;;;;17.45;50.76;100573.83;1423185;92;20371;-87
2022/08/08 00:24:53;;;;;;;;;;;;;;;17.39;51.04;100571.92;1428171;92;20304;-87
2022/08/08 00:27:20;;;;;;;;;;;;;;;17.32;51.03;100569.66;1418393;92;20302;-87
2022/08/08 00:30:10;;;;;;;;;;;;;;;17.27;51.16;100572.09;1427409;91;20952;-87
2022/08/08 00:32:46;;;;;;;;;;;;;;;17.23;51.63;100568.94;1450906;90;20300;-87
2022/08/08 00:35:27;;;;;;;;;;;;;;;17.17;51.92;100569.69;1447229;90;20257;-87
2022/08/08 00:38:09;;;;;;;;;;;;;;;17.16;51.43;100564.55;1439279;90;20339;-87
2022/08/08 00:40:48;;;;;;;;;;;;;;;17.11;52.12;100563.25;1442157;90;20828;-87
2022/08/08 00:43:32;;;;;;;;;;;;;;;17.08;52.04;100559.61;1441419;90;20933;-87
2022/08/08 00:46:19;;;;;;;;;;;;;;;17.06;52.19;100558.14;1444013;90;20257;-87
2022/08/08 00:48:52;;;;;;;;;;;;;;;17.05;52.86;100561.33;1448014;90;20393;-87
2022/08/08 00:51:50;;;;;;;;;;;;;;;17.01;52.44;100562.73;1443433;90;20293;-87
2022/08/08 00:54:26;;;;;;;;;;;;;;;17.03;52.58;100567.39;1437235;90;21086;-87
2022/08/08 00:57:13;;;;;;;;;;;;;;;17.02;52.68;100560.36;1445316;90;20398;-87
2022/08/08 00:59:55;;;;;;;;;;;;;;;17.02;52.24;100560.36;1442070;90;20301;-87
2022/08/08 01:02:27;;;;;;;;;;;;;;;17.03;52.40;100569.20;1445314;90;20408;-87
2022/08/08 01:05:03;;;;;;;;;;;;;;;17.00;52.30;100569.06;1440285;90;20425;-87
2022/08/08 01:07:39;;;;;;;;;;;;;;;17.00;52.41;100566.39;1446054;90;20357;-87
2022/08/08 01:10:18;;;;;;;;;;;;;;;17.01;53.29;100570.75;1456979;90;20837;-87
2022/08/08 01:12:47;;;;;;;;;;;;;;;17.00;52.52;100561.05;1437240;90;20292;-87
2022/08/08 01:15:31;;;;;;;;;;;;;;;17.03;52.22;100555.84;1447865;90;20342;-87
2022/08/08 01:18:20;;;;;;;;;;;;;;;17.02;52.44;100555.02;1443084;90;20293;-87
2022/08/08 01:20:56;;;;;;;;;;;;;;;17.05;52.44;100553.30;1438431;90;20300;-87
2022/08/08 01:23:28;;;;;;;;;;;;;;;17.05;52.02;100547.95;1443666;90;20308;-87
2022/08/08 01:26:12;;;;;;;;;;;;;;;17.05;51.94;100545.28;1446585;90;20397;-87
2022/08/08 01:29:11;;;;;;;;;;;;;;;17.06;51.92;100552.31;1450978;90;20234;-87
2022/08/08 01:31:41;;;;;;;;;;;;;;;17.08;51.97;100554.78;1442676;90;20844;-87
2022/08/08 01:34:37;;;;;;;;;;;;;;;17.11;51.74;100552.55;1448925;90;20243;-87
2022/08/08 01:37:07;;;;;;;;;;;;;;;17.12;51.70;100555.56;1425551;90;20346;-87
2022/08/08 01:40:11;;;;;;;;;;;;;;;17.14;51.68;100548.67;1445445;90;20286;-87
2022/08/08 01:43:02;;;;;;;;;;;;;;;17.15;51.88;100549.02;1444059;90;20294;-87
2022/08/08 01:45:47;;;;;;;;;;;;;;;17.15;51.95;100547.68;1443631;90;20241;-88
2022/08/08 01:48:32;;;;;;;;;;;;;;;17.17;51.68;100546.96;1446356;90;20308;-87
2022/08/08 01:51:11;;;;;;;;;;;;;;;17.19;51.79;100548.13;1441340;90;20250;-87
2022/08/08 01:53:55;;;;;;;;;;;;;;;17.21;52.24;100543.42;1449242;90;20378;-87
2022/08/08 01:56:34;;;;;;;;;;;;;;;17.24;52.25;100545.73;1438576;90;20324;-88
2022/08/08 01:59:19;;;;;;;;;;;;;;;17.24;52.00;100545.73;1444960;90;20286;-88
2022/08/08 02:02:04;;;;;;;;;;;;;;;17.25;52.17;100550.05;1441182;90;20835;-87
2022/08/08 02:04:55;;;;;;;;;;;;;;;17.28;52.15;100548.33;1449115;90;20301;-87
2022/08/08 02:07:24;;;;;;;;;;;;;;;17.32;51.86;100554.95;1446163;90;20375;-87
2022/08/08 02:09:56;;;;;;;;;;;;;;;17.34;51.98;100552.41;1449625;90;20335;-88
2022/08/08 02:12:29;;;;;;;;;;;;;;;17.36;51.87;100552.23;1449207;90;20861;-87
2022/08/08 02:15:14;;;;;;;;;;;;;;;17.38;51.73;100546.19;1446967;90;20793;-88
2022/08/08 02:17:55;;;;;;;;;;;;;;;17.39;51.63;100546.50;1447581;90;20442;-88
2022/08/08 02:20:40;;;;;;;;;;;;;;;17.40;51.67;100542.80;1441947;90;20279;-88
2022/08/08 02:23:21;;;;;;;;;;;;;;;17.43;51.71;100538.41;1441666;90;20309;-87
2022/08/08 02:26:06;;;;;;;;;;;;;;;17.43;51.53;100542.93;1401672;90;20786;-87
2022/08/08 02:28:44;;;;;;;;;;;;;;;17.43;51.73;100545.61;1446090;90;20331;-88
2022/08/08 02:31:23;;;;;;;;;;;;;;;17.42;51.80;100547.45;1441540;90;20346;-87
2022/08/08 02:33:56;;;;;;;;;;;;;;;17.42;51.80;100554.15;1442612;90;20331;-87
2022/08/08 02:36:47;;;;;;;;;;;;;;;17.39;52.09;100558.55;1450165;90;20280;-88
2022/08/08 02:39:25;;;;;;;;;;;;;;;17.39;52.12;100563.89;1445138;90;20241;-88
2022/08/08 02:42:05;;;;;;;;;;;;;;;17.36;52.05;100561.59;1441615;90;20756;-87
2022/08/08 02:44:56;;;;;;;;;;;;;;;17.33;52.23;100571.34;1447372;90;20704;-87
2022/08/08 02:47:59;;;;;;;;;;;;;;;17.30;52.42;100564.52;1451202;90;20331;-87
2022/08/08 02:50:49;;;;;;;;;;;;;;;17.28;52.40;100563.04;1443932;90;20347;-88
2022/08/08 02:53:37;;;;;;;;;;;;;;;17.25;52.70;100564.24;1450680;90;20270;-87
2022/08/08 02:56:33;;;;;;;;;;;;;;;17.23;52.76;100562.77;1443630;90;20850;-87
2022/08/08 02:59:23;;;;;;;;;;;;;;;17.21;52.95;100559.48;1427192;90;20284;-88
2022/08/08 03:02:11;;;;;;;;;;;;;;;17.20;52.88;100561.81;1454604;90;20315;-87
2022/08/08 03:05:15;;;;;;;;;;;;;;;17.19;53.50;100562.84;1442762;90;20391;-88
2022/08/08 03:07:47;;;;;;;;;;;;;;;17.17;54.01;100568.87;1447733;90;20357;-87
2022/08/08 03:10:26;;;;;;;;;;;;;;;17.16;54.95;100569.90;1439070;90;20301;-88
2022/08/08 03:13:28;;;;;;;;;;;;;;;17.15;55.05;100569.08;1439454;90;20412;-88
2022/08/08 03:16:32;;;;;;;;;;;;;;;17.11;54.49;100563.25;1447313;90;20962;-87
2022/08/08 03:19:20;;;;;;;;;;;;;;;17.09;54.49;100573.33;1448005;90;20899;-87
2022/08/08 03:21:45;;;;;;;;;;;;;;;17.04;55.09;100571.70;1448420;90;20345;-87
2022/08/08 03:24:17;;;;;;;;;;;;;;;17.02;54.63;100571.06;1445814;90;20278;-87
2022/08/08 03:26:45;;;;;;;;;;;;;;;16.99;54.96;100564.75;1442037;90;20278;-87
2022/08/08 03:29:14;;;;;;;;;;;;;;;16.98;55.80;100573.80;1443270;90;20294;-87
2022/08/08 03:34:24;;;;;;;;;;;;;;;16.97;55.57;100576.13;1448785;90;20353;-88
2022/08/08 03:36:50;;;;;;;;;;;;;;;16.96;57.67;100574.48;1446853;90;20234;-87
2022/08/08 03:39:16;;;;;;;;;;;;;;;16.93;57.29;100581.53;1443415;90;20278;-87
2022/08/08 03:41:43;;;;;;;;;;;;;;;16.89;57.01;100576.25;1446342;90;20807;-87
2022/08/08 03:44:09;;;;;;;;;;;;;;;16.86;57.98;100579.27;1451446;90;20294;-87
2022/08/08 03:46:45;;;;;;;;;;;;;;;16.84;56.46;100577.30;1445142;90;20852;-87
2022/08/08 03:49:22;;;;;;;;;;;;;;;16.82;57.75;100575.31;1439502;90;20287;-87
2022/08/08 03:51:53;;;;;;;;;;;;;;;16.78;58.36;100574.86;1444383;90;20856;-87
2022/08/08 03:54:19;;;;;;;;;;;;;;;16.75;58.33;100577.88;1435363;91;20801;-88
2022/08/08 03:56:45;;;;;;;;;;;;;;;16.72;57.09;100573.41;1436600;91;20286;-87
2022/08/08 03:59:12;;;;;;;;;;;;;;;16.72;57.37;100572.08;1441437;91;20353;-87
2022/08/08 04:01:38;;;;;;;;;;;;;;;16.72;59.53;100573.41;1445425;91;20287;-87
2022/08/08 04:04:04;;;;;;;;;;;;;;;16.72;59.06;100582.77;1439237;91;20293;-87
2022/08/08 04:06:30;;;;;;;;;;;;;;;16.70;58.18;100577.08;1439986;91;20391;-88
2022/08/08 04:08:58;;;;;;;;;;;;;;;16.72;58.61;100582.77;1442734;91;21546;-87
2022/08/08 04:11:24;;;;;;;;;;;;;;;16.74;58.24;100582.87;1437975;91;20837;-87
2022/08/08 04:13:50;;;;;;;;;;;;;;;16.79;59.08;100581.03;1434147;91;20249;-87
2022/08/08 04:16:16;;;;;;;;;;;;;;;16.82;59.81;100584.67;1445519;91;20362;-87
2022/08/08 04:18:42;;;;;;;;;;;;;;;16.84;59.38;100593.34;1440986;91;20235;-87
2022/08/08 04:21:07;;;;;;;;;;;;;;;16.86;59.65;100601.50;1449203;91;20220;-87
2022/08/08 04:23:33;;;;;;;;;;;;;;;16.91;59.97;100600.42;1439512;91;20815;-87
2022/08/08 04:25:59;;;;;;;;;;;;;;;16.96;59.15;100599.87;1446586;91;20317;-87
2022/08/08 04:28:25;;;;;;;;;;;;;;;17.01;58.77;100600.16;1442689;91;20368;-87
2022/08/08 04:30:51;;;;;;;;;;;;;;;17.08;58.84;100602.39;1441363;91;20287;-87
2022/08/08 04:33:17;;;;;;;;;;;;;;;17.17;59.13;100604.97;1439789;91;20393;-87
2022/08/08 04:35:43;;;;;;;;;;;;;;;17.25;58.57;100600.86;1442498;91;20264;-87
2022/08/08 04:38:08;;;;;;;;;;;;;;;17.36;59.43;100608.41;1447139;91;20264;-87
2022/08/08 04:40:34;;;;;;;;;;;;;;;17.47;59.17;100613.80;1458125;90;20279;-87
2022/08/08 04:43:02;;;;;;;;;;;;;;;17.58;58.45;100617.32;1439094;91;20353;-87
2022/08/08 04:45:28;;;;;;;;;;;;;;;17.68;58.76;100617.00;1444186;90;20386;-87
2022/08/08 04:47:57;;;;;;;;;;;;;;;17.80;58.01;100619.53;1439128;90;20301;-87
2022/08/08 04:50:23;;;;;;;;;;;;;;;17.92;58.09;100614.49;1443148;91;20293;-88
2022/08/08 04:52:49;;;;;;;;;;;;;;;18.04;57.67;100608.97;1435782;91;20756;-87
2022/08/08 04:55:15;;;;;;;;;;;;;;;18.17;56.87;100610.41;1434361;91;20242;-88
2022/08/08 04:57:41;;;;;;;;;;;;;;;18.31;56.69;100603.31;1443287;90;20293;-88
2022/08/08 05:00:08;;;;;;;;;;;;;;;18.47;57.96;100596.82;1435527;91;20235;-87
2022/08/08 05:02:34;;;;;;;;;;;;;;;18.56;55.98;100605.54;1437055;91;20293;-87
2022/08/08 05:05:00;;;;;;;;;;;;;;;18.70;57.23;100608.14;1437667;91;20287;-87
2022/08/08 05:07:26;;;;;;;;;;;;;;;18.80;55.56;100610.49;1440941;91;20294;-87
2022/08/08 05:09:52;;;;;;;;;;;;;;;18.88;55.73;100609.00;1458100;91;20257;-87
2022/08/08 05:12:18;;;;;;;;;;;;;;;19.01;56.12;100607.41;1447856;91;20346;-87
2022/08/08 05:14:44;;;;;;;;;;;;;;;19.09;54.95;100609.92;1439670;91;20293;-87
2022/08/08 05:17:09;;;;;;;;;;;;;;;19.19;55.45;100607.72;1435707;91;20301;-87
2022/08/08 05:19:36;;;;;;;;;;;;;;;19.29;55.04;100613.52;1444603;91;20236;-82
2022/08/08 05:22:07;;;;;;;;;;;;;;;19.39;54.77;100618.02;1429437;91;20220;-81
2022/08/08 05:24:33;;;;;;;;;;;;;;;19.47;54.58;100618.85;1433909;90;20998;-82
2022/08/08 05:26:59;;;;;;;;;;;;;;;19.54;54.45;100621.06;1442293;91;20316;-82
2022/08/08 05:29:25;;;;;;;;;;;;;;;19.61;54.20;100619.21;1442346;91;20323;-82
2022/08/08 05:31:51;;;;;;;;;;;;;;;19.69;54.50;100617.72;1444552;91;20407;-82
2022/08/08 05:34:20;;;;;;;;;;;;;;;19.71;53.88;100621.04;1452979;91;20257;-82
2022/08/08 05:36:48;;;;;;;;;;;;;;;19.76;54.12;100619.89;1444759;91;20346;-82
2022/08/08 05:39:15;;;;;;;;;;;;;;;19.69;53.81;100619.06;1438270;91;20286;-81
2022/08/08 05:41:41;;;;;;;;;;;;;;;19.66;53.61;100622.16;1445387;91;20301;-82
2022/08/08 05:44:11;;;;;;;;;;;;;;;19.74;54.04;100620.63;1440079;91;20331;-82
2022/08/08 05:46:37;;;;;;;;;;;;;;;19.84;53.80;100635.00;1439195;91;20258;-82
2022/08/08 05:49:03;;;;;;;;;;;;;;;19.94;53.66;100633.25;1445736;90;20451;-81
2022/08/08 05:51:29;;;;;;;;;;;;;;;20.10;53.92;100631.52;1447606;90;20397;-81
2022/08/08 05:53:56;;;;;;;;;;;;;;;20.22;54.53;100629.87;1445430;90;20808;-81
2022/08/08 05:56:22;;;;;;;;;;;;;;;20.35;53.05;100630.93;1450740;90;20234;-82
2022/08/08 05:58:51;;;;;;;;;;;;;;;20.43;52.35;100629.39;1448576;90;20807;-81
2022/08/08 06:01:18;;;;;;;;;;;;;;;20.61;52.72;100620.71;1445310;90;20286;-82
2022/08/08 06:03:45;;;;;;;;;;;;;;;20.72;51.94;100622.24;1446182;90;21645;-81
2022/08/08 06:06:11;;;;;;;;;;;;;;;20.87;51.52;100631.94;1439486;90;20242;-82
2022/08/08 06:08:43;;;;;;;;;;;;;;;21.00;51.48;100633.76;1449571;90;20931;-82
2022/08/08 06:11:09;;;;;;;;;;;;;;;21.11;51.10;100627.20;1445935;90;20278;-81
2022/08/08 06:13:35;;;;;;;;;;;;;;;21.23;50.82;100625.20;1446529;90;20594;-82
2022/08/08 06:16:00;;;;;;;;;;;;;;;21.32;50.52;100627.45;1449713;90;20286;-82
2022/08/08 06:18:28;;;;;;;;;;;;;;;21.45;50.31;100625.24;1451774;90;20498;-81
2022/08/08 06:20:57;;;;;;;;;;;;;;;21.55;50.23;100625.62;1448573;90;20360;-82
2022/08/08 06:23:26;;;;;;;;;;;;;;;21.63;49.83;100632.08;1441340;90;20301;-82
2022/08/08 06:26:04;;;;;;;;;;;;;;;21.69;49.84;100621.49;1450031;90;20300;-82
2022/08/08 06:28:49;;;;;;;;;;;;;;;21.78;49.67;100626.92;1390154;93;20306;-82
2022/08/08 06:31:18;;;;;;;;;;;;;;;21.91;49.86;100627.37;1394495;94;20374;-81
2022/08/08 06:33:51;;;;;;;;;;;;;;;21.92;49.26;100623.63;1385712;94;20414;-82
2022/08/08 06:36:38;;;;;;;;;;;;;;;21.96;49.35;100637.81;1386249;94;20291;-82
2022/08/08 06:39:08;;;;;;;;;;;;;;;22.06;49.21;100636.79;1382321;94;20421;-81
2022/08/08 06:41:35;;;;;;;;;;;;;;;22.02;49.06;100640.98;1399344;94;20405;-81
2022/08/08 06:44:02;;;;;;;;;;;;;;;22.18;49.25;100638.81;1398560;94;20414;-82
2022/08/08 06:46:29;;;;;;;;;;;;;;;22.34;49.33;100646.38;1388004;94;20374;-81
2022/08/08 06:48:55;;;;;;;;;;;;;;;22.47;49.63;100644.92;1390464;92;20385;-82
2022/08/08 06:51:21;;;;;;;;;;;;;;;22.62;49.08;100645.11;1398089;94;20345;-82
2022/08/08 06:53:49;;;;;;;;;;;;;;;22.78;48.95;100632.91;1376818;94;20307;-82
2022/08/08 06:56:15;;;;;;;;;;;;;;;22.87;48.23;100645.91;1396555;94;20264;-82
2022/08/08 06:58:40;;;;;;;;;;;;;;;22.96;47.62;100640.54;1394357;94;20495;-82
2022/08/08 07:01:09;;;;;;;;;;;;;;;23.01;48.44;100639.03;1398328;94;20316;-82
2022/08/08 07:03:54;;;;;;;;;;;;;;;23.15;47.73;100637.83;1399043;93;20358;-82
2022/08/08 07:06:26;;;;;;;;;;;;;;;23.10;47.82;100633.63;1410987;92;20428;-82
2022/08/08 07:08:55;;;;;;;;;;;;;;;23.20;48.06;100636.64;1433112;91;20303;-82
2022/08/08 07:11:22;;;;;;;;;;;;;;;23.35;47.48;100636.25;1418326;91;20309;-82
2022/08/08 07:13:53;;;;;;;;;;;;;;;23.39;47.58;100640.98;1419947;91;20332;-82
2022/08/08 07:16:26;;;;;;;;;;;;;;;23.38;46.66;100645.24;1416952;92;20379;-82
2022/08/08 07:19:05;;;;;;;;;;;;;;;23.48;47.07;100639.29;1418995;91;20340;-82
2022/08/08 07:21:38;;;;;;;;;;;;;;;23.53;46.66;100644.84;1423527;91;20303;-82
2022/08/08 07:24:11;;;;;;;;;;;;;;;23.50;47.04;100652.05;1409207;92;20428;-82
2022/08/08 07:26:39;;;;;;;;;;;;;;;23.61;46.99;100651.28;1416853;91;20310;-82
2022/08/08 07:29:05;;;;;;;;;;;;;;;23.74;46.64;100649.80;1420452;91;20244;-82
2022/08/08 07:31:31;;;;;;;;;;;;;;;23.90;46.37;100652.36;1415815;91;20302;-81
2022/08/08 07:33:57;;;;;;;;;;;;;;;23.91;46.18;100649.98;1428059;92;20832;-82
2022/08/08 07:36:25;;;;;;;;;;;;;;;24.05;46.60;100641.97;1410498;91;20340;-82
2022/08/08 07:38:51;;;;;;;;;;;;;;;24.03;46.55;100645.42;1417102;92;20362;-82
2022/08/08 07:41:20;;;;;;;;;;;;;;;24.14;46.55;100642.96;1423692;92;20287;-82
2022/08/08 07:43:47;;;;;;;;;;;;;;;24.23;46.77;100642.41;1426113;92;21045;-82
2022/08/08 07:46:13;;;;;;;;;;;;;;;24.30;45.88;100647.17;1419281;91;20986;-81
2022/08/08 07:48:39;;;;;;;;;;;;;;;24.40;46.15;100634.94;1426739;90;20338;-82
2022/08/08 07:51:07;;;;;;;;;;;;;;;24.53;45.70;100642.88;1449258;90;20264;-82
2022/08/08 07:53:53;;;;;;;;;;;;;;;24.64;46.27;100635.83;1446026;90;20250;-82
2022/08/08 07:56:19;;;;;;;;;;;;;;;24.75;45.69;100639.06;1447860;90;20272;-82
2022/08/08 07:58:47;;;;;;;;;;;;;;;24.84;45.91;100642.23;1441113;90;20310;-82
2022/08/08 08:01:19;;;;;;;;;;;;;;;24.94;45.12;100643.80;1446708;90;20228;-82
2022/08/08 08:04:00;;;;;;;;;;;;;;;24.99;44.98;100636.61;1446198;90;20286;-82
2022/08/08 08:06:27;;;;;;;;;;;;;;;25.17;45.31;100637.02;1442887;90;20344;-82
2022/08/08 08:09:06;;;;;;;;;;;;;;;25.33;44.26;100636.81;1435786;90;20375;-83
2022/08/08 08:11:34;;;;;;;;;;;;;;;25.32;43.84;100637.03;1451430;90;21070;-82
2022/08/08 08:14:04;;;;;;;;;;;;;;;25.29;44.25;100644.29;1442045;90;20398;-82
2022/08/08 08:16:36;;;;;;;;;;;;;;;25.40;44.53;100640.72;1440693;90;20316;-82
2022/08/08 08:19:05;;;;;;;;;;;;;;;25.34;43.90;100648.46;1444703;90;20293;-82
2022/08/08 08:21:42;;;;;;;;;;;;;;;25.57;44.83;100647.02;1450227;90;20278;-82
2022/08/08 08:24:08;;;;;;;;;;;;;;;25.77;44.41;100640.34;1443611;90;20335;-82
2022/08/08 08:26:34;;;;;;;;;;;;;;;26.02;44.41;100649.52;1447980;90;20309;-82
2022/08/08 08:29:01;;;;;;;;;;;;;;;26.20;43.30;100643.84;1451668;90;20310;-82
2022/08/08 08:31:27;;;;;;;;;;;;;;;26.37;43.29;100648.47;1448787;90;20386;-82
2022/08/08 08:33:53;;;;;;;;;;;;;;;26.45;42.17;100652.12;1450911;90;20301;-82
2022/08/08 08:36:19;;;;;;;;;;;;;;;26.41;42.27;100646.34;1441135;90;20346;-82
2022/08/08 08:38:46;;;;;;;;;;;;;;;26.54;42.63;100643.34;1434636;90;20970;-82
2022/08/08 08:41:12;;;;;;;;;;;;;;;26.53;42.24;100648.49;1448507;90;20242;-82
2022/08/08 08:43:40;;;;;;;;;;;;;;;26.60;41.81;100644.23;1451713;90;20748;-82
2022/08/08 08:46:09;;;;;;;;;;;;;;;26.77;42.23;100644.22;1446014;90;20249;-82
2022/08/08 08:48:35;;;;;;;;;;;;;;;26.66;41.25;100643.78;1452742;90;20322;-82
2022/08/08 08:51:03;;;;;;;;;;;;;;;26.83;42.06;100646.47;1443627;90;20837;-82
2022/08/08 08:53:33;;;;;;;;;;;;;;;26.86;41.43;100650.05;1449627;90;20755;-82
2022/08/08 08:55:59;;;;;;;;;;;;;;;27.03;41.48;100643.22;1446083;90;20420;-82
2022/08/08 08:58:42;;;;;;;;;;;;;;;27.23;42.13;100643.50;1442214;90;20314;-82
2022/08/08 09:01:11;;;;;;;;;;;;;;;27.36;42.31;100634.98;1446761;90;20256;-82
2022/08/08 09:03:40;;;;;;;;;;;;;;;27.48;41.17;100637.55;1451555;90;20367;-82
2022/08/08 09:06:09;;;;;;;;;;;;;;;27.56;40.29;100636.27;1443574;90;20361;-82
2022/08/08 09:08:36;;;;;;;;;;;;;;;27.74;41.92;100630.49;1447337;90;21925;-82
2022/08/08 09:11:03;;;;;;;;;;;;;;;27.86;40.70;100632.53;1442257;90;20308;-83
2022/08/08 09:13:29;;;;;;;;;;;;;;;27.69;40.68;100631.79;1433810;90;20464;-82
2022/08/08 09:15:55;;;;;;;;;;;;;;;27.61;40.62;100633.06;1448345;90;20242;-82
2022/08/08 09:18:22;;;;;;;;;;;;;;;27.54;40.82;100631.09;1446188;90;20235;-82
2022/08/08 09:20:49;;;;;;;;;;;;;;;27.83;41.05;100634.41;1453421;90;20265;-82
2022/08/08 09:23:15;;;;;;;;;;;;;;;27.90;40.15;100633.65;1442771;90;20400;-82
2022/08/08 09:25:45;;;;;;;;;;;;;;;28.04;39.88;100631.33;1442730;90;20493;-83
2022/08/08 09:28:11;;;;;;;;;;;;;;;28.29;40.55;100628.01;1446061;90;20808;-80
2022/08/08 09:30:37;;;;;;;;;;;;;;;28.41;39.30;100630.55;1448457;90;20286;-81
2022/08/08 09:33:04;;;;;;;;;;;;;;;28.36;39.60;100627.78;1446276;90;20285;-80
2022/08/08 09:35:30;;;;;;;;;;;;;;;28.54;39.51;100626.56;1452716;90;20397;-80
2022/08/08 09:37:58;;;;;;;;;;;;;;;28.56;38.75;100623.05;1447040;90;20308;-83
2022/08/08 09:40:27;;;;;;;;;;;;;;;28.56;39.07;100627.13;1437030;90;20300;-82
2022/08/08 09:43:08;;;;;;;;;;;;;;;28.54;39.15;100624.69;1443466;90;20243;-82
2022/08/08 09:45:40;;;;;;;;;;;;;;;28.67;38.54;100613.86;1448851;90;20249;-82
2022/08/08 09:48:08;;;;;;;;;;;;;;;28.82;38.12;100625.93;1441664;90;20375;-82
2022/08/08 09:50:34;;;;;;;;;;;;;;;29.03;37.99;100615.42;1440150;90;20308;-83
2022/08/08 09:53:01;;;;;;;;;;;;;;;29.30;38.49;100606.28;1449780;90;20228;-82
2022/08/08 09:55:30;;;;;;;;;;;;;;;29.49;38.97;100615.58;1444331;90;20323;-83
2022/08/08 09:58:08;;;;;;;;;;;;;;;29.61;37.96;100609.36;1443959;90;20338;-82
2022/08/08 10:00:36;;;;;;;;;;;;;;;29.74;37.79;100609.95;1446408;90;20308;-83
2022/08/08 10:03:04;;;;;;;;;;;;;;;29.79;37.22;100609.96;1443992;90;20301;-82
2022/08/08 10:05:35;;;;;;;;;;;;;;;29.98;37.19;100609.70;1445534;90;20778;-83
2022/08/08 10:08:01;;;;;;;;;;;;;;;29.99;36.47;100606.43;1438818;90;20241;-83
2022/08/08 10:10:34;;;;;;;;;;;;;;;29.74;36.32;100615.41;1443511;90;20384;-83
2022/08/08 10:13:03;;;;;;;;;;;;;;;29.55;37.00;100614.53;1439799;90;20301;-83
2022/08/08 10:15:32;;;;;;;;;;;;;;;29.55;37.05;100613.69;1444122;90;20285;-83
2022/08/08 10:17:58;;;;;;;;;;;;;;;29.58;36.89;100614.54;1438513;90;20806;-83
2022/08/08 10:20:28;;;;;;;;;;;;;;;29.60;37.03;100610.42;1446360;90;20308;-83
2022/08/08 10:22:59;;;;;;;;;;;;;;;29.81;37.92;100607.78;1441818;90;20287;-83
2022/08/08 10:25:25;;;;;;;;;;;;;;;29.90;37.28;100607.52;1443364;90;20293;-82
2022/08/08 10:27:52;;;;;;;;;;;;;;;29.95;36.61;100600.67;1450025;90;20293;-83
2022/08/08 10:30:21;;;;;;;;;;;;;;;29.83;37.04;100606.95;1444274;90;20345;-83
2022/08/08 10:32:55;;;;;;;;;;;;;;;30.04;37.14;100604.52;1444478;90;20235;-83
2022/08/08 10:35:24;;;;;;;;;;;;;;;29.94;36.34;100604.50;1443386;90;20391;-81
2022/08/08 10:38:00;;;;;;;;;;;;;;;29.92;36.56;100608.04;1446802;90;20424;-82
2022/08/08 10:40:28;;;;;;;;;;;;;;;30.02;36.49;100609.97;1445189;90;20383;-83
2022/08/08 10:43:03;;;;;;;;;;;;;;;30.10;36.54;100609.43;1446370;90;20360;-82
2022/08/08 10:45:31;;;;;;;;;;;;;;;30.17;36.80;100603.69;1454721;90;20257;-83
2022/08/08 10:47:59;;;;;;;;;;;;;;;30.19;36.16;100602.87;1446645;90;20857;-83
2022/08/08 10:50:36;;;;;;;;;;;;;;;30.08;35.22;100602.87;1444330;90;20308;-83
2022/08/08 10:53:07;;;;;;;;;;;;;;;29.95;36.25;100606.13;1450748;90;20293;-83
2022/08/08 10:55:36;;;;;;;;;;;;;;;30.04;36.26;100604.52;1456724;89;20337;-82
2022/08/08 10:58:05;;;;;;;;;;;;;;;30.13;35.46;100598.78;1454762;89;20264;-83
2022/08/08 11:00:31;;;;;;;;;;;;;;;30.06;35.57;100598.22;1452332;89;20220;-83
2022/08/08 11:02:59;;;;;;;;;;;;;;;30.32;36.66;100589.49;1463502;89;20791;-83
2022/08/08 11:05:26;;;;;;;;;;;;;;;30.29;35.81;100586.50;1442551;90;20286;-82
2022/08/08 11:07:54;;;;;;;;;;;;;;;30.32;35.72;100583.22;1453882;90;20307;-83
2022/08/08 11:10:22;;;;;;;;;;;;;;;30.49;36.80;100573.36;1455683;89;20241;-83
2022/08/08 11:12:52;;;;;;;;;;;;;;;30.67;35.37;100571.94;1446636;90;20227;-83
2022/08/08 11:15:21;;;;;;;;;;;;;;;30.82;35.52;100570.57;1443115;89;20292;-81
2022/08/08 11:17:47;;;;;;;;;;;;;;;30.86;35.41;100568.91;1453047;90;20400;-81
2022/08/08 11:20:16;;;;;;;;;;;;;;;30.83;35.62;100569.46;1458683;90;20310;-81
2022/08/08 11:22:43;;;;;;;;;;;;;;;30.66;34.95;100571.68;1456064;90;20821;-81
2022/08/08 11:25:12;;;;;;;;;;;;;;;30.41;35.88;100567.91;1449511;90;20315;-81
2022/08/08 11:27:40;;;;;;;;;;;;;;;30.17;35.62;100569.57;1439657;89;20308;-81
2022/08/08 11:30:08;;;;;;;;;;;;;;;29.99;35.94;100567.67;1454475;89;20308;-81
2022/08/08 11:32:38;;;;;;;;;;;;;;;30.06;36.02;100561.38;1449934;90;20835;-81
2022/08/08 11:35:13;;;;;;;;;;;;;;;30.07;36.01;100560.31;1442199;90;20777;-81
2022/08/08 11:37:41;;;;;;;;;;;;;;;29.85;36.20;100557.04;1450792;89;20308;-83
2022/08/08 11:40:11;;;;;;;;;;;;;;;29.92;36.11;100557.56;1461057;90;20250;-83
2022/08/08 11:42:39;;;;;;;;;;;;;;;30.09;37.10;100554.01;1448866;90;20286;-83
2022/08/08 11:45:06;;;;;;;;;;;;;;;30.40;36.65;100551.27;1453628;90;20227;-83
2022/08/08 11:47:33;;;;;;;;;;;;;;;30.57;36.00;100550.40;1456895;90;20403;-83
2022/08/08 11:50:07;;;;;;;;;;;;;;;30.49;34.74;100545.50;1453890;89;20352;-83
2022/08/08 11:52:35;;;;;;;;;;;;;;;30.54;35.10;100548.23;1450295;89;20345;-83
2022/08/08 11:55:01;;;;;;;;;;;;;;;30.75;35.91;100553.06;1455506;89;20404;-83
2022/08/08 11:57:28;;;;;;;;;;;;;;;30.64;35.05;100543.27;1446042;90;20378;-83
2022/08/08 12:00:03;;;;;;;;;;;;;;;30.86;34.67;100543.50;1448110;89;20807;-83
2022/08/08 12:02:31;;;;;;;;;;;;;;;31.05;34.51;100538.23;1457040;89;20279;-83
2022/08/08 12:05:05;;;;;;;;;;;;;;;31.19;34.54;100540.06;1451368;90;20353;-83
2022/08/08 12:07:44;;;;;;;;;;;;;;;31.28;34.63;100530.70;1452046;89;20352;-81
2022/08/08 12:10:12;;;;;;;;;;;;;;;31.22;34.06;100536.75;1458406;90;20359;-82
2022/08/08 12:12:43;;;;;;;;;;;;;;;31.20;34.80;100535.40;1451283;90;20420;-83
2022/08/08 12:15:10;;;;;;;;;;;;;;;31.07;34.74;100534.64;1449332;89;20393;-82
2022/08/08 12:17:37;;;;;;;;;;;;;;;30.72;34.48;100548.16;1448582;90;20278;-83
2022/08/08 12:20:05;;;;;;;;;;;;;;;30.78;34.73;100549.77;1451824;90;20374;-83
2022/08/08 12:22:32;;;;;;;;;;;;;;;30.69;34.21;100546.54;1457713;90;20287;-82
2022/08/08 12:24:59;;;;;;;;;;;;;;;30.52;34.89;100547.67;1443239;90;20836;-83
2022/08/08 12:27:37;;;;;;;;;;;;;;;30.82;34.70;100543.80;1451479;90;20280;-82
2022/08/08 12:30:04;;;;;;;;;;;;;;;30.65;33.88;100542.74;1444242;90;20933;-83
2022/08/08 12:32:42;;;;;;;;;;;;;;;30.71;34.21;100540.26;1451930;90;20471;-83
2022/08/08 12:35:14;;;;;;;;;;;;;;;30.70;33.68;100539.97;1449565;89;20265;-83
2022/08/08 12:37:40;;;;;;;;;;;;;;;30.77;33.78;100537.22;1447788;90;20314;-82
2022/08/08 12:40:15;;;;;;;;;;;;;;;30.97;33.89;100534.97;1448175;90;20594;-83
2022/08/08 12:42:46;;;;;;;;;;;;;;;30.92;33.90;100534.18;1445659;90;20777;-83
2022/08/08 12:45:13;;;;;;;;;;;;;;;30.88;33.53;100531.20;1451680;89;20293;-83
2022/08/08 12:47:39;;;;;;;;;;;;;;;30.78;34.43;100542.13;1448963;90;20293;-83
2022/08/08 12:50:06;;;;;;;;;;;;;;;30.94;33.71;100533.36;1446517;90;20293;-83
2022/08/08 12:52:40;;;;;;;;;;;;;;;31.09;32.77;100533.27;1460844;89;20411;-82
2022/08/08 12:55:11;;;;;;;;;;;;;;;31.25;33.19;100532.64;1449764;89;20315;-83
2022/08/08 12:57:37;;;;;;;;;;;;;;;31.34;32.90;100528.76;1448287;90;20352;-83
2022/08/08 13:00:06;;;;;;;;;;;;;;;31.32;31.67;100537.78;1454031;89;20292;-83
2022/08/08 13:02:39;;;;;;;;;;;;;;;31.42;32.64;100535.84;1448671;89;20286;-83